createdAt,value
2023-04-26T00:01:58.715Z,0.98
2023-04-26T00:04:25.551Z,0.73
2023-04-26T00:06:52.567Z,0.70
2023-04-26T00:09:19.619Z,0.98
2023-04-26T00:11:46.476Z,0.55
2023-04-26T00:14:13.587Z,0.80
2023-04-26T00:16:40.348Z,0.70
2023-04-26T00:19:07.099Z,0.82
2023-04-26T00:21:33.778Z,0.80
2023-04-26T00:24:00.455Z,1.02
2023-04-26T00:26:27.128Z,0.98
2023-04-26T00:28:54.332Z,0.80
2023-04-26T00:31:21.304Z,0.95
2023-04-26T00:33:48.001Z,1.00
2023-04-26T00:36:16.905Z,1.10
2023-04-26T00:38:43.595Z,0.88
2023-04-26T00:41:10.317Z,1.10
2023-04-26T00:43:37.308Z,1.10
2023-04-26T00:46:04.407Z,1.20
2023-04-26T00:48:31.423Z,1.13
2023-04-26T00:50:58.140Z,1.10
2023-04-26T00:53:26.403Z,1.13
2023-04-26T00:55:54.156Z,1.40
2023-04-26T00:58:20.974Z,1.50
2023-04-26T01:00:47.881Z,1.42
2023-04-26T01:03:14.856Z,1.67
2023-04-26T01:05:41.645Z,1.80
2023-04-26T01:08:10.249Z,1.92
2023-04-26T01:10:37.091Z,2.13
2023-04-26T01:13:03.843Z,2.00
2023-04-26T01:15:30.869Z,1.52
2023-04-26T01:17:57.626Z,1.83
2023-04-26T01:20:26.029Z,1.80
2023-04-26T01:22:52.769Z,1.30
2023-04-26T01:25:20.204Z,1.73
2023-04-26T01:27:46.915Z,1.55
2023-04-26T01:30:13.772Z,1.10
2023-04-26T01:32:40.480Z,1.17
2023-04-26T01:35:07.565Z,1.13
2023-04-26T01:37:34.305Z,1.20
2023-04-26T01:40:01.342Z,1.05
2023-04-26T01:42:28.064Z,0.90
2023-04-26T01:44:54.780Z,1.00
2023-04-26T01:47:22.245Z,0.95
2023-04-26T01:49:49.016Z,0.80
2023-04-26T01:52:16.685Z,1.20
2023-04-26T01:54:45.807Z,1.35
2023-04-26T01:57:12.492Z,0.85
2023-04-26T01:59:39.178Z,1.10
2023-04-26T02:02:06.819Z,1.10
2023-04-26T02:04:33.744Z,1.17
2023-04-26T02:07:00.571Z,1.10
2023-04-26T02:09:27.647Z,0.70
2023-04-26T02:11:54.330Z,1.10
2023-04-26T02:14:21.051Z,1.00
2023-04-26T02:16:49.199Z,1.08
2023-04-26T02:19:16.072Z,0.93
2023-04-26T02:21:59.972Z,0.70
2023-04-26T02:24:27.315Z,0.88
2023-04-26T02:26:54.540Z,0.90
2023-04-26T02:29:32.616Z,0.90
2023-04-26T02:32:07.755Z,1.20
2023-04-26T02:34:35.483Z,1.15
2023-04-26T02:37:02.338Z,1.40
2023-04-26T02:39:29.211Z,1.35
2023-04-26T02:41:55.930Z,1.20
2023-04-26T02:44:22.658Z,1.23
2023-04-26T02:46:49.429Z,1.50
2023-04-26T02:49:16.555Z,1.05
2023-04-26T02:51:43.340Z,1.05
2023-04-26T02:54:10.133Z,1.30
2023-04-26T02:56:36.819Z,1.15
2023-04-26T02:59:03.492Z,1.50
2023-04-26T03:01:30.316Z,1.90
2023-04-26T03:03:57.256Z,1.35
2023-04-26T03:06:24.109Z,1.38
2023-04-26T03:08:50.948Z,1.45
2023-04-26T03:11:17.768Z,1.25
2023-04-26T03:13:44.512Z,1.67
2023-04-26T03:16:11.763Z,1.70
2023-04-26T03:18:38.520Z,1.70
2023-04-26T03:21:06.567Z,1.50
2023-04-26T03:23:34.062Z,1.73
2023-04-26T03:26:01.031Z,1.70
2023-04-26T03:28:27.745Z,1.70
2023-04-26T03:30:54.603Z,1.45
2023-04-26T03:33:21.386Z,1.52
2023-04-26T03:35:48.131Z,1.65
2023-04-26T03:38:14.884Z,1.63
2023-04-26T03:40:41.627Z,2.20
2023-04-26T03:43:08.617Z,2.03
2023-04-26T03:45:36.612Z,1.98
2023-04-26T03:48:03.603Z,2.28
2023-04-26T03:50:30.578Z,1.92
2023-04-26T03:52:57.271Z,2.05
2023-04-26T03:55:24.119Z,1.80
2023-04-26T03:57:51.262Z,2.20
2023-04-26T04:00:17.985Z,1.73
2023-04-26T04:02:45.107Z,2.17
2023-04-26T04:05:19.633Z,2.00
2023-04-26T04:07:47.102Z,2.30
2023-04-26T04:10:14.050Z,2.47
2023-04-26T04:12:42.096Z,2.08
2023-04-26T04:15:09.587Z,2.00
2023-04-26T04:17:41.665Z,2.42
2023-04-26T04:20:09.169Z,2.70
2023-04-26T04:22:36.174Z,2.78
2023-04-26T04:25:03.541Z,3.08
2023-04-26T04:27:30.357Z,2.92
2023-04-26T04:29:57.041Z,4.07
2023-04-26T04:32:24.747Z,3.53
2023-04-26T04:34:53.831Z,3.60
2023-04-26T04:37:21.213Z,3.60
2023-04-26T04:39:47.869Z,4.15
2023-04-26T04:42:15.278Z,4.28
2023-04-26T04:44:42.974Z,4.00
2023-04-26T04:47:10.154Z,4.05
2023-04-26T04:49:37.406Z,4.63
2023-04-26T04:52:05.140Z,5.57
2023-04-26T04:54:32.660Z,7.10
2023-04-26T04:56:59.392Z,7.45
2023-04-26T04:59:26.363Z,4.38
2023-04-26T05:01:53.316Z,3.50
2023-04-26T05:04:20.163Z,3.35
2023-04-26T05:06:48.304Z,3.35
2023-04-26T05:09:15.112Z,2.80
2023-04-26T05:11:42.214Z,3.15
2023-04-26T05:14:11.280Z,3.45
2023-04-26T05:16:38.480Z,3.50
2023-04-26T05:19:06.628Z,3.35
2023-04-26T05:21:35.482Z,3.63
2023-04-26T05:24:02.220Z,4.15
2023-04-26T05:26:29.031Z,5.15
2023-04-26T05:29:06.223Z,3.85
2023-04-26T05:31:56.065Z,3.90
2023-04-26T05:34:34.123Z,3.90
2023-04-26T05:37:01.184Z,3.30
2023-04-26T05:39:28.067Z,3.53
2023-04-26T05:41:54.835Z,3.97
2023-04-26T05:44:21.717Z,3.47
2023-04-26T05:46:48.492Z,3.28
2023-04-26T05:49:15.990Z,3.53
2023-04-26T05:51:43.264Z,3.13
2023-04-26T05:54:11.198Z,3.33
2023-04-26T05:56:38.512Z,3.40
2023-04-26T05:59:05.750Z,3.47
2023-04-26T06:01:33.828Z,3.28
2023-04-26T06:04:02.139Z,3.20
2023-04-26T06:06:35.920Z,3.60
2023-04-26T06:09:02.933Z,3.42
2023-04-26T06:11:30.104Z,3.47
2023-04-26T06:13:56.907Z,3.08
2023-04-26T06:16:25.128Z,3.58
2023-04-26T06:18:51.869Z,4.15
2023-04-26T06:21:18.632Z,4.72
2023-04-26T06:23:46.619Z,4.82
2023-04-26T06:26:13.371Z,5.20
2023-04-26T06:28:42.223Z,5.05
2023-04-26T06:31:09.400Z,4.63
2023-04-26T06:33:36.640Z,4.35
2023-04-26T06:36:03.580Z,4.47
2023-04-26T06:38:30.299Z,5.22
2023-04-26T06:40:57.961Z,4.85
2023-04-26T06:43:24.866Z,4.68
2023-04-26T06:46:05.957Z,4.63
2023-04-26T06:48:32.760Z,5.18
2023-04-26T06:51:04.509Z,4.57
2023-04-26T06:53:31.202Z,5.00
2023-04-26T06:55:58.143Z,5.18
2023-04-26T06:58:25.073Z,5.18
2023-04-26T07:00:51.953Z,4.47
2023-04-26T07:03:18.880Z,5.00
2023-04-26T07:05:45.674Z,5.22
2023-04-26T07:08:12.441Z,5.47
2023-04-26T07:10:42.305Z,5.47
2023-04-26T07:13:09.698Z,5.35
2023-04-26T07:15:38.489Z,5.78
2023-04-26T07:18:05.220Z,4.78
2023-04-26T07:20:32.050Z,4.80
2023-04-26T07:22:58.819Z,4.53
2023-04-26T07:25:25.558Z,4.65
2023-04-26T07:27:52.344Z,4.05
2023-04-26T07:30:19.223Z,3.88
2023-04-26T07:32:46.152Z,3.92
2023-04-26T07:35:16.263Z,6.10
2023-04-26T07:37:44.333Z,5.75
2023-04-26T07:40:13.440Z,4.20
2023-04-26T07:42:40.210Z,3.83
2023-04-26T07:45:08.440Z,3.90
2023-04-26T07:47:35.197Z,4.35
2023-04-26T07:50:01.969Z,4.30
2023-04-26T07:52:28.713Z,3.70
2023-04-26T07:54:55.569Z,4.10
2023-04-26T07:57:22.386Z,3.38
2023-04-26T07:59:49.060Z,3.40
2023-04-26T08:02:16.969Z,3.33
2023-04-26T08:04:55.531Z,3.60
2023-04-26T08:07:22.667Z,3.60
2023-04-26T08:09:49.356Z,3.10
2023-04-26T08:12:16.494Z,3.30
2023-04-26T08:14:43.889Z,4.10
2023-04-26T08:17:10.845Z,3.03
2023-04-26T08:19:37.984Z,3.17
2023-04-26T08:22:05.857Z,3.35
2023-04-26T08:24:32.620Z,3.00
2023-04-26T08:26:59.336Z,3.22
2023-04-26T08:29:27.533Z,3.10
2023-04-26T08:31:54.592Z,2.28
2023-04-26T08:34:21.413Z,2.30
2023-04-26T08:36:48.122Z,2.30
2023-04-26T08:39:14.801Z,2.42
2023-04-26T08:41:49.469Z,2.53
2023-04-26T08:44:17.446Z,2.20
2023-04-26T08:46:50.093Z,2.30
2023-04-26T08:49:29.920Z,2.00
2023-04-26T08:51:57.637Z,2.00
2023-04-26T08:54:25.907Z,2.03
2023-04-26T08:56:55.220Z,2.30
2023-04-26T08:59:23.496Z,3.30
2023-04-26T09:01:50.666Z,3.63
2023-04-26T09:04:18.030Z,2.97
2023-04-26T09:06:45.713Z,3.95
2023-04-26T09:09:17.541Z,4.20
2023-04-26T09:11:57.900Z,4.10
2023-04-26T09:14:25.069Z,3.67
2023-04-26T09:16:53.001Z,3.08
2023-04-26T09:19:40.358Z,3.00
2023-04-26T09:22:07.265Z,3.42
2023-04-26T09:24:48.180Z,2.80
2023-04-26T09:27:16.491Z,3.58
2023-04-26T09:30:05.932Z,3.13
2023-04-26T09:32:51.266Z,3.15
2023-04-26T09:35:40.340Z,3.40
2023-04-26T09:38:12.678Z,3.10
2023-04-26T09:43:15.870Z,3.58
2023-04-26T09:45:55.709Z,3.28
2023-04-26T09:48:30.755Z,3.00
2023-04-26T09:51:03.330Z,3.38
2023-04-26T09:53:34.239Z,2.97
2023-04-26T09:56:11.353Z,2.65
2023-04-26T09:58:58.742Z,3.08
2023-04-26T10:01:29.886Z,2.67
2023-04-26T10:04:04.622Z,6.18
2023-04-26T10:06:32.905Z,10.15
2023-04-26T10:09:01.335Z,4.18
2023-04-26T10:11:28.611Z,16.38
2023-04-26T10:13:55.408Z,11.40
2023-04-26T10:16:22.329Z,3.90
2023-04-26T10:18:49.366Z,2.00
2023-04-26T10:21:27.089Z,2.05
2023-04-26T10:23:54.070Z,2.38
2023-04-26T10:26:49.962Z,2.20
2023-04-26T10:29:16.868Z,1.95
2023-04-26T10:32:02.085Z,2.30
2023-04-26T10:34:33.678Z,2.85
2023-04-26T10:37:11.583Z,1.80
2023-04-26T10:39:46.503Z,1.75
2023-04-26T10:42:25.175Z,1.60
2023-04-26T10:44:53.413Z,2.00
2023-04-26T10:47:37.321Z,2.25
2023-04-26T10:50:09.706Z,1.90
2023-04-26T10:52:57.575Z,1.60
2023-04-26T10:55:41.709Z,3.78
2023-04-26T10:58:29.767Z,3.45
2023-04-26T11:01:17.214Z,3.10
2023-04-26T11:04:10.460Z,3.40
2023-04-26T11:06:54.331Z,3.40
2023-04-26T11:09:39.463Z,2.95
2023-04-26T11:12:16.543Z,2.92
2023-04-26T11:14:45.502Z,3.15
2023-04-26T11:17:13.170Z,2.53
2023-04-26T11:19:41.886Z,2.80
2023-04-26T11:22:09.063Z,2.50
2023-04-26T11:24:39.448Z,2.75
2023-04-26T11:27:10.245Z,3.15
2023-04-26T11:29:37.965Z,2.97
2023-04-26T11:32:05.405Z,2.70
2023-04-26T11:34:32.626Z,3.28
2023-04-26T11:36:59.719Z,2.30
2023-04-26T11:39:27.091Z,3.63
2023-04-26T11:42:10.171Z,2.70
2023-04-26T11:44:37.847Z,2.58
2023-04-26T11:47:06.823Z,2.63
2023-04-26T11:49:35.978Z,2.20
2023-04-26T11:52:04.809Z,2.10
2023-04-26T11:54:33.504Z,2.20
2023-04-26T11:57:00.983Z,1.90
2023-04-26T11:59:29.699Z,1.75
2023-04-26T12:02:01.888Z,1.73
2023-04-26T12:04:30.792Z,2.00
2023-04-26T12:06:58.137Z,1.80
2023-04-26T12:09:28.201Z,2.25
2023-04-26T12:12:02.149Z,2.00
2023-04-26T12:14:39.746Z,2.40
2023-04-26T12:17:07.778Z,2.28
2023-04-26T12:19:40.833Z,2.00
2023-04-26T12:22:08.665Z,2.60
2023-04-26T12:24:38.765Z,2.13
2023-04-26T12:27:06.837Z,2.10
2023-04-26T12:29:34.594Z,3.40
2023-04-26T12:32:02.064Z,3.78
2023-04-26T12:34:28.909Z,2.13
2023-04-26T12:36:55.710Z,2.47
2023-04-26T12:39:22.484Z,1.80
2023-04-26T12:41:49.425Z,1.80
2023-04-26T12:44:16.232Z,1.70
2023-04-26T12:46:43.367Z,1.83
2023-04-26T12:49:10.151Z,1.75
2023-04-26T12:51:36.838Z,1.85
2023-04-26T12:54:03.672Z,1.50
2023-04-26T12:56:30.732Z,2.10
2023-04-26T12:58:57.448Z,1.83
2023-04-26T13:01:24.526Z,1.40
2023-04-26T13:03:51.377Z,1.30
2023-04-26T13:06:18.516Z,2.05
2023-04-26T13:08:45.259Z,3.75
2023-04-26T13:11:11.928Z,4.45
2023-04-26T13:13:43.796Z,3.33
2023-04-26T13:16:12.523Z,4.60
2023-04-26T13:18:40.131Z,3.05
2023-04-26T13:21:07.104Z,1.90
2023-04-26T13:23:33.856Z,1.80
2023-04-26T13:26:00.531Z,2.97
2023-04-26T13:28:27.258Z,5.65
2023-04-26T13:30:54.149Z,2.58
2023-04-26T13:33:21.234Z,2.03
2023-04-26T13:35:48.435Z,1.77
2023-04-26T13:38:16.411Z,1.75
2023-04-26T13:40:43.770Z,1.70
2023-04-26T13:43:10.545Z,1.40
2023-04-26T13:45:37.265Z,1.58
2023-04-26T13:48:04.284Z,1.80
2023-04-26T13:50:31.225Z,1.60
2023-04-26T13:52:57.974Z,1.88
2023-04-26T13:55:25.600Z,1.90
2023-04-26T13:57:52.286Z,1.98
2023-04-26T14:00:19.321Z,1.75
2023-04-26T14:02:47.310Z,1.70
2023-04-26T14:05:14.345Z,1.83
2023-04-26T14:07:41.738Z,1.58
2023-04-26T14:10:09.061Z,1.50
2023-04-26T14:12:35.836Z,1.90
2023-04-26T14:15:04.295Z,1.88
2023-04-26T14:17:32.768Z,1.50
2023-04-26T14:19:59.496Z,1.60
2023-04-26T14:22:27.165Z,1.60
2023-04-26T14:24:53.903Z,1.65
2023-04-26T14:27:20.831Z,1.67
2023-04-26T14:29:47.621Z,1.52
2023-04-26T14:32:14.515Z,1.42
2023-04-26T14:34:41.994Z,1.75
2023-04-26T14:37:09.096Z,1.55
2023-04-26T14:39:35.976Z,1.50
2023-04-26T14:42:03.998Z,1.75
2023-04-26T14:44:30.801Z,1.77
2023-04-26T14:46:58.041Z,1.58
2023-04-26T14:49:24.820Z,1.45
2023-04-26T14:51:53.504Z,1.80
2023-04-26T14:54:21.025Z,1.30
2023-04-26T14:56:47.853Z,1.40
2023-04-26T14:59:14.540Z,1.30
2023-04-26T15:01:41.536Z,1.67
2023-04-26T15:04:08.427Z,1.77
2023-04-26T15:06:35.311Z,1.30
2023-04-26T15:09:02.021Z,1.40
2023-04-26T15:11:28.716Z,1.20
2023-04-26T15:13:55.421Z,1.50
2023-04-26T15:16:22.789Z,1.30
2023-04-26T15:18:49.530Z,1.58
2023-04-26T15:21:19.469Z,1.52
2023-04-26T15:23:46.513Z,1.58
2023-04-26T15:26:13.623Z,1.40
2023-04-26T15:28:40.615Z,1.80
2023-04-26T15:31:11.244Z,1.40
2023-04-26T15:33:38.084Z,1.30
2023-04-26T15:36:05.381Z,1.67
2023-04-26T15:38:34.299Z,1.55
2023-04-26T15:41:01.134Z,1.40
2023-04-26T15:43:27.827Z,4.00
2023-04-26T15:45:54.844Z,1.50
2023-04-26T15:48:21.923Z,1.50
2023-04-26T15:50:48.580Z,4.05
2023-04-26T15:53:16.145Z,2.40
2023-04-26T15:55:42.973Z,2.30
2023-04-26T15:58:09.640Z,2.42
2023-04-26T16:00:36.621Z,2.58
2023-04-26T16:03:03.464Z,9.25
2023-04-26T16:05:31.616Z,1.98
2023-04-26T16:07:59.877Z,2.03
2023-04-26T16:10:27.023Z,3.05
2023-04-26T16:12:53.753Z,2.50
2023-04-26T16:15:20.569Z,14.30
2023-04-26T16:17:47.507Z,4.43
2023-04-26T16:20:15.164Z,9.57
2023-04-26T16:22:45.081Z,2.30
2023-04-26T16:25:12.108Z,2.72
2023-04-26T16:27:38.782Z,2.83
2023-04-26T16:30:06.091Z,1.98
2023-04-26T16:32:33.180Z,4.75
2023-04-26T16:35:00.172Z,2.42
2023-04-26T16:37:26.898Z,2.00
2023-04-26T16:39:56.385Z,3.28
2023-04-26T16:42:23.349Z,1.75
2023-04-26T16:44:50.067Z,1.60
2023-04-26T16:47:16.810Z,1.65
2023-04-26T16:49:43.450Z,1.65
2023-04-26T16:52:10.390Z,2.10
2023-04-26T16:54:37.254Z,2.20
2023-04-26T16:57:04.514Z,1.80
2023-04-26T16:59:31.194Z,1.80
2023-04-26T17:01:57.955Z,1.85
2023-04-26T17:04:24.834Z,1.77
2023-04-26T17:06:51.712Z,1.73
2023-04-26T17:09:18.624Z,1.70
2023-04-26T17:11:46.393Z,1.40
2023-04-26T17:14:13.382Z,2.20
2023-04-26T17:16:40.211Z,1.77
2023-04-26T17:19:07.043Z,1.83
2023-04-26T17:21:33.740Z,1.95
2023-04-26T17:24:00.545Z,1.75
2023-04-26T17:26:27.685Z,2.65
2023-04-26T17:28:54.576Z,2.08
2023-04-26T17:31:21.300Z,2.25
2023-04-26T17:33:48.068Z,2.45
2023-04-26T17:36:14.818Z,2.67
2023-04-26T17:38:41.692Z,1.98
2023-04-26T17:41:08.374Z,2.30
2023-04-26T17:43:35.065Z,1.85
2023-04-26T17:46:01.838Z,1.90
2023-04-26T17:48:29.072Z,1.63
2023-04-26T17:50:56.280Z,3.97
2023-04-26T17:53:23.065Z,1.92
2023-04-26T17:55:51.215Z,2.63
2023-04-26T17:58:17.949Z,3.15
2023-04-26T18:00:44.942Z,3.03
2023-04-26T18:03:12.136Z,2.55
2023-04-26T18:05:39.149Z,2.50
2023-04-26T18:08:05.906Z,2.58
2023-04-26T18:10:32.886Z,2.70
2023-04-26T18:12:59.544Z,2.40
2023-04-26T18:15:26.329Z,2.53
2023-04-26T18:17:53.522Z,2.00
2023-04-26T18:20:20.451Z,2.13
2023-04-26T18:22:47.116Z,3.08
2023-04-26T18:25:13.841Z,2.60
2023-04-26T18:27:40.585Z,2.80
2023-04-26T18:30:08.142Z,3.85
2023-04-26T18:32:34.898Z,7.70
2023-04-26T18:35:01.590Z,5.88
2023-04-26T18:37:28.271Z,4.07
2023-04-26T18:39:54.989Z,3.38
2023-04-26T18:42:21.695Z,3.60
2023-04-26T18:44:48.413Z,3.60
2023-04-26T18:47:15.157Z,9.45
2023-04-26T18:49:41.928Z,5.20
2023-04-26T18:52:09.872Z,4.32
2023-04-26T18:54:38.594Z,3.28
2023-04-26T18:57:05.352Z,3.40
2023-04-26T18:59:32.096Z,3.70
2023-04-26T19:01:59.056Z,5.03
2023-04-26T19:04:26.363Z,4.93
2023-04-26T19:06:53.358Z,3.75
2023-04-26T19:09:20.128Z,3.20
2023-04-26T19:11:46.797Z,2.97
2023-04-26T19:14:13.537Z,3.45
2023-04-26T19:16:40.321Z,3.28
2023-04-26T19:19:07.035Z,3.30
2023-04-26T19:21:35.048Z,3.97
2023-04-26T19:24:01.708Z,3.35
2023-04-26T19:26:28.381Z,2.65
2023-04-26T19:28:55.789Z,2.65
2023-04-26T19:31:22.966Z,2.65
2023-04-26T19:33:49.689Z,2.67
2023-04-26T19:36:16.457Z,3.17
2023-04-26T19:38:43.169Z,3.10
2023-04-26T19:41:09.839Z,2.40
2023-04-26T19:43:36.549Z,2.60
2023-04-26T19:46:14.144Z,3.00
2023-04-26T19:48:41.678Z,3.13
2023-04-26T19:51:08.396Z,2.78
2023-04-26T19:53:35.277Z,3.00
2023-04-26T19:56:01.964Z,2.72
2023-04-26T19:58:28.661Z,2.60
2023-04-26T20:00:55.471Z,2.55
2023-04-26T20:03:22.283Z,2.40
2023-04-26T20:05:49.420Z,2.38
2023-04-26T20:08:16.763Z,1.92
2023-04-26T20:10:43.512Z,2.50
2023-04-26T20:13:10.213Z,2.30
2023-04-26T20:15:37.272Z,2.63
2023-04-26T20:18:04.227Z,2.88
2023-04-26T20:20:30.958Z,3.50
2023-04-26T20:22:57.654Z,2.67
2023-04-26T20:25:24.625Z,2.05
2023-04-26T20:27:51.464Z,2.13
2023-04-26T20:30:18.219Z,1.80
2023-04-26T20:32:45.006Z,1.70
2023-04-26T20:35:13.564Z,1.75
2023-04-26T20:37:40.641Z,1.88
2023-04-26T20:40:08.164Z,2.17
2023-04-26T20:42:35.414Z,2.00
2023-04-26T20:45:02.804Z,1.65
2023-04-26T20:47:30.100Z,1.70
2023-04-26T20:49:56.997Z,1.60
2023-04-26T20:52:23.771Z,1.95
2023-04-26T20:54:50.535Z,1.48
2023-04-26T20:57:17.321Z,1.70
2023-04-26T20:59:44.120Z,1.83
2023-04-26T21:02:11.464Z,2.00
2023-04-26T21:04:41.771Z,1.92
2023-04-26T21:07:09.875Z,1.65
2023-04-26T21:09:36.718Z,1.73
2023-04-26T21:12:03.832Z,1.75
2023-04-26T21:14:30.758Z,1.60
2023-04-26T21:16:57.538Z,1.75
2023-04-26T21:19:24.254Z,1.92
2023-04-26T21:21:51.132Z,1.60
2023-04-26T21:24:18.100Z,2.03
2023-04-26T21:26:44.948Z,2.00
2023-04-26T21:29:12.515Z,1.85
2023-04-26T21:31:39.262Z,1.60
2023-04-26T21:34:05.971Z,1.83
2023-04-26T21:36:32.624Z,2.00
2023-04-26T21:38:59.325Z,1.48
2023-04-26T21:41:26.107Z,1.88
2023-04-26T21:43:57.057Z,1.85
2023-04-26T21:46:23.767Z,1.50
2023-04-26T21:48:50.753Z,2.10
2023-04-26T21:51:17.493Z,1.90
2023-04-26T21:53:44.220Z,1.98
2023-04-26T21:56:11.209Z,1.98
2023-04-26T21:58:37.953Z,1.70
2023-04-26T22:01:12.893Z,1.80
2023-04-26T22:03:40.463Z,2.00
2023-04-26T22:06:08.582Z,2.20
2023-04-26T22:08:35.620Z,1.60
2023-04-26T22:11:02.885Z,1.67
2023-04-26T22:13:30.735Z,1.58
2023-04-26T22:15:57.472Z,1.50
2023-04-26T22:18:25.849Z,1.70
2023-04-26T22:20:53.419Z,1.70
2023-04-26T22:23:20.392Z,2.08
2023-04-26T22:25:47.064Z,1.70
2023-04-26T22:28:13.732Z,1.67
2023-04-26T22:30:40.416Z,1.60
2023-04-26T22:33:07.233Z,1.85
2023-04-26T22:35:34.834Z,1.80
2023-04-26T22:38:01.667Z,1.85
2023-04-26T22:40:28.418Z,2.30
2023-04-26T22:42:55.094Z,2.03
2023-04-26T22:45:22.604Z,2.05
2023-04-26T22:47:49.427Z,1.98
2023-04-26T22:50:16.213Z,2.10
2023-04-26T22:52:42.949Z,2.00
2023-04-26T22:55:09.929Z,2.03
2023-04-26T22:57:37.393Z,2.30
2023-04-26T23:00:05.451Z,2.20
2023-04-26T23:02:32.783Z,2.65
2023-04-26T23:04:59.556Z,2.08
2023-04-26T23:07:26.704Z,2.15
2023-04-26T23:09:53.482Z,1.92
2023-04-26T23:12:20.394Z,2.35
2023-04-26T23:14:48.574Z,2.08
2023-04-26T23:17:15.302Z,2.03
2023-04-26T23:19:42.629Z,2.35
2023-04-26T23:22:09.343Z,2.80
2023-04-26T23:24:36.349Z,2.42
2023-04-26T23:27:03.636Z,2.50
2023-04-26T23:29:30.278Z,2.30
2023-04-26T23:31:56.962Z,2.08
2023-04-26T23:34:23.720Z,2.08
2023-04-26T23:36:50.405Z,2.20
2023-04-26T23:39:17.693Z,2.55
2023-04-26T23:41:44.712Z,2.55
2023-04-26T23:44:11.421Z,2.15
2023-04-26T23:46:38.117Z,2.30
2023-04-26T23:49:04.822Z,2.20
2023-04-26T23:51:32.349Z,1.90
2023-04-26T23:53:59.012Z,2.20
2023-04-26T23:56:25.755Z,2.42
2023-04-26T23:58:52.442Z,2.75
